Time;durP1;ratioP1;P1;durP2;ratioP2;P2;SDS_P1;SDS_P2;PMS_P1;PMS_P2;Temp;Humidity;BMP_temperature;BMP_pressure;BME280_temperature;BME280_humidity;BME280_pressure;Samples;Min_cycle;Max_cycle;Signal;HPM_P1;HPM_P2
2021/07/08 00:02:16;;;;;;;6.70;4.00;;;;;;;20.60;70.39;101191.60;1671073;84;21102;-74
2021/07/08 00:04:43;;;;;;;10.27;4.60;;;;;;;20.59;70.46;101193.25;1672428;85;21039;-74
2021/07/08 00:07:11;;;;;;;5.70;3.27;;;;;;;20.58;70.56;101195.17;1674446;84;20988;-73
2021/07/08 00:09:39;;;;;;;5.07;3.50;;;;;;;20.58;70.71;101205.23;1673090;84;21664;-73
2021/07/08 00:12:07;;;;;;;7.70;3.80;;;;;;;20.59;70.87;101205.47;1673928;84;21046;-73
2021/07/08 00:14:35;;;;;;;5.30;3.70;;;;;;;20.57;70.84;101204.43;1662645;85;21420;-72
2021/07/08 00:17:06;;;;;;;7.87;3.70;;;;;;;20.57;70.87;101204.98;1673076;84;22043;-71
2021/07/08 00:19:33;;;;;;;6.67;3.83;;;;;;;20.58;70.81;101205.23;1676074;84;21651;-72
2021/07/08 00:22:00;;;;;;;5.07;3.40;;;;;;;20.58;70.86;101206.58;1673532;84;21660;-73
2021/07/08 00:24:27;;;;;;;8.13;4.10;;;;;;;20.57;70.74;101204.98;1683419;85;21562;-73
2021/07/08 00:26:53;;;;;;;5.50;3.67;;;;;;;20.58;70.68;101203.31;1651260;86;21047;-72
2021/07/08 00:29:21;;;;;;;7.10;3.90;;;;;;;20.59;70.83;101208.17;1673785;84;21544;-73
2021/07/08 00:31:48;;;;;;;6.93;3.97;;;;;;;20.59;70.83;101209.53;1692658;83;21082;-72
2021/07/08 00:34:15;;;;;;;4.63;3.57;;;;;;;20.59;70.83;101212.25;1650473;85;21122;-72
2021/07/08 00:36:41;;;;;;;5.60;3.50;;;;;;;20.59;70.85;101213.05;1672015;85;21049;-71
2021/07/08 00:39:08;;;;;;;7.53;4.00;;;;;;;20.59;70.88;101208.17;1673479;84;21134;-72
2021/07/08 00:41:34;;;;;;;6.23;4.17;;;;;;;20.58;71.07;101216.08;1670626;84;21519;-72
2021/07/08 00:44:02;;;;;;;6.93;4.40;;;;;;;20.57;72.06;101215.84;1702182;83;21588;-72
2021/07/08 00:46:29;;;;;;;7.30;4.47;;;;;;;20.51;72.73;101212.44;1667657;85;21517;-71
2021/07/08 00:48:55;;;;;;;7.27;4.40;;;;;;;20.46;73.05;101215.23;1685576;83;21146;-72
2021/07/08 00:51:22;;;;;;;6.20;4.03;;;;;;;20.41;73.25;101207.78;1685442;83;21065;-72
2021/07/08 00:53:49;;;;;;;6.87;3.90;;;;;;;20.38;73.50;101211.91;1688304;83;21567;-73
2021/07/08 00:56:16;;;;;;;6.63;4.30;;;;;;;20.33;73.71;101215.52;1671202;84;21525;-73
2021/07/08 00:59:02;;;;;;;4.93;4.13;;;;;;;20.27;74.11;101212.70;1669429;85;21035;-73
2021/07/08 01:01:29;;;;;;;6.13;4.30;;;;;;;20.24;74.15;101217.94;1630457;86;21088;-72
2021/07/08 01:03:56;;;;;;;6.33;4.10;;;;;;;20.20;74.17;101218.28;1688536;83;21562;-73
2021/07/08 01:06:26;;;;;;;7.20;4.30;;;;;;;20.18;74.34;101221.88;1684125;83;21827;-72
2021/07/08 01:08:54;;;;;;;5.97;4.30;;;;;;;20.14;74.61;101217.05;1687041;83;21055;-72
2021/07/08 01:11:22;;;;;;;6.63;4.30;;;;;;;20.11;74.95;101223.09;1652308;85;21062;-72
2021/07/08 01:13:50;;;;;;;5.77;4.17;;;;;;;20.08;75.22;101224.25;1686080;83;21092;-72
2021/07/08 01:16:18;;;;;;;7.97;4.10;;;;;;;20.03;75.87;101229.22;1685135;83;21042;-71
2021/07/08 01:18:47;;;;;;;6.43;4.50;;;;;;;20.00;75.98;101234.45;1682294;83;21843;-73
2021/07/08 01:21:30;;;;;;;9.47;4.40;;;;;;;19.96;75.99;101227.48;1688084;83;21074;-73
2021/07/08 01:24:02;;;;;;;7.20;4.40;;;;;;;19.96;76.14;101236.17;1682547;83;21031;-71
2021/07/08 01:26:29;;;;;;;6.37;4.40;;;;;;;19.93;76.46;101229.99;1650830;85;21126;-72
2021/07/08 01:28:57;;;;;;;7.23;4.50;;;;;;;19.89;76.50;101229.24;1671948;85;21024;-73
2021/07/08 01:31:24;;;;;;;6.43;4.23;;;;;;;19.86;76.55;101232.55;1673461;84;21114;-72
2021/07/08 01:33:51;;;;;;;10.00;4.53;;;;;;;19.84;76.92;101234.78;1671745;85;21093;-73
2021/07/08 01:36:19;;;;;;;5.57;4.00;;;;;;;19.81;77.05;101234.03;1683954;83;21093;-73
2021/07/08 01:38:46;;;;;;;7.63;4.23;;;;;;;19.80;77.29;101235.67;1690808;83;21533;-73
2021/07/08 01:41:13;;;;;;;6.90;4.50;;;;;;;19.77;77.66;101239.78;1684298;83;21059;-71
2021/07/08 01:43:41;;;;;;;7.10;3.77;;;;;;;19.74;77.98;101241.74;1684387;83;21120;-73
2021/07/08 01:46:12;;;;;;;5.67;4.03;;;;;;;19.72;78.11;101234.48;1649181;85;21650;-73
2021/07/08 01:48:40;;;;;;;6.28;4.58;;;;;;;19.70;77.88;101238.59;1671727;84;21055;-73
2021/07/08 01:51:22;;;;;;;6.03;3.97;;;;;;;19.68;77.89;101244.33;1646355;84;21851;-74
2021/07/08 01:53:51;;;;;;;5.87;4.60;;;;;;;19.66;77.98;101236.48;1668204;84;21036;-72
2021/07/08 01:56:17;;;;;;;7.10;4.53;;;;;;;19.64;78.14;101243.30;1666269;84;21120;-73
2021/07/08 01:58:45;;;;;;;6.50;4.53;;;;;;;19.61;78.32;101244.70;1674161;84;21044;-73
2021/07/08 02:01:12;;;;;;;7.57;4.53;;;;;;;19.58;78.40;101243.15;1673094;84;21055;-73
2021/07/08 02:03:41;;;;;;;7.20;4.70;;;;;;;19.57;78.38;101242.88;1670141;84;21523;-73
2021/07/08 02:06:08;;;;;;;6.20;4.30;;;;;;;19.57;78.46;101244.23;1683556;83;21059;-73
2021/07/08 02:08:36;;;;;;;7.00;4.47;;;;;;;19.55;78.75;101239.12;1682530;85;21159;-73
2021/07/08 02:11:05;;;;;;;5.87;4.33;;;;;;;19.52;78.93;101238.38;1695633;83;21051;-72
2021/07/08 02:13:34;;;;;;;6.97;4.30;;;;;;;19.50;78.94;101237.85;1683826;83;21042;-72
2021/07/08 02:16:07;;;;;;;6.43;4.07;;;;;;;19.49;78.88;101241.67;1688321;83;21210;-73
2021/07/08 02:18:35;;;;;;;8.33;4.63;;;;;;;19.50;79.33;101246.53;1686087;83;21086;-73
2021/07/08 02:21:03;;;;;;;9.33;4.10;;;;;;;19.50;79.26;101250.60;1673508;83;21162;-73
2021/07/08 02:23:29;;;;;;;5.53;4.50;;;;;;;19.52;79.05;101245.70;1681059;83;21089;-73
2021/07/08 02:25:56;;;;;;;7.67;4.50;;;;;;;19.52;78.81;101254.63;1648959;85;21115;-73
2021/07/08 02:28:24;;;;;;;5.73;4.20;;;;;;;19.54;78.98;101255.11;1672395;85;21027;-72
2021/07/08 02:30:50;;;;;;;7.43;4.53;;;;;;;19.55;79.02;101256.73;1689063;83;21099;-71
2021/07/08 02:33:17;;;;;;;6.10;4.70;;;;;;;19.59;78.99;101255.58;1685554;83;21130;-72
2021/07/08 02:35:45;;;;;;;7.60;4.70;;;;;;;19.61;78.92;101266.91;1685163;83;21058;-74
2021/07/08 02:38:12;;;;;;;8.27;4.53;;;;;;;19.63;78.96;101263.36;1674135;83;22235;-73
2021/07/08 02:40:39;;;;;;;8.57;4.73;;;;;;;19.64;79.06;101264.45;1685106;83;21376;-73
2021/07/08 02:43:07;;;;;;;6.67;4.67;;;;;;;19.65;78.94;101259.84;1684611;83;21125;-72
2021/07/08 02:45:37;;;;;;;5.53;4.40;;;;;;;19.69;78.91;101263.55;1685454;83;21812;-73
2021/07/08 02:48:08;;;;;;;6.50;4.20;;;;;;;19.73;79.02;101261.83;1683957;84;21011;-72
2021/07/08 02:50:35;;;;;;;7.67;4.70;;;;;;;19.76;78.87;101259.88;1684270;83;21018;-72
2021/07/08 02:53:03;;;;;;;5.50;4.63;;;;;;;19.81;79.25;101258.95;1684489;83;21126;-72
2021/07/08 02:55:31;;;;;;;6.77;4.60;;;;;;;19.85;79.33;101264.05;1685714;83;21628;-73
2021/07/08 02:57:59;;;;;;;6.60;4.77;;;;;;;19.89;79.17;101267.20;1648446;85;21151;-72
2021/07/08 03:00:28;;;;;;;7.40;4.20;;;;;;;19.96;79.27;101267.34;1685575;83;21153;-74
2021/07/08 03:02:54;;;;;;;8.50;4.80;;;;;;;20.00;78.93;101265.07;1649646;86;21084;-73
2021/07/08 03:05:22;;;;;;;6.07;4.27;;;;;;;20.04;78.73;101263.38;1671880;84;21636;-73
2021/07/08 03:07:50;;;;;;;6.10;4.17;;;;;;;20.08;78.13;101260.30;1671959;84;21657;-73
2021/07/08 03:10:20;;;;;;;5.80;4.47;;;;;;;20.13;77.52;101268.31;1674842;84;21787;-73
2021/07/08 03:12:49;;;;;;;7.20;5.27;;;;;;;20.17;77.01;101271.25;1680086;84;21354;-73
2021/07/08 03:15:18;;;;;;;6.80;4.20;;;;;;;20.22;76.85;101268.41;1670459;84;20885;-71
2021/07/08 03:17:46;;;;;;;5.90;4.93;;;;;;;20.28;76.52;101265.84;1672585;84;21091;-73
2021/07/08 03:20:22;;;;;;;8.03;4.50;;;;;;;20.33;76.36;101272.50;1671943;84;21068;-72
2021/07/08 03:22:50;;;;;;;6.37;4.30;;;;;;;20.38;76.18;101272.95;1687571;84;22262;-72
2021/07/08 03:25:18;;;;;;;6.70;4.50;;;;;;;20.44;76.12;101273.09;1671354;84;21654;-72
2021/07/08 03:27:44;;;;;;;7.63;4.50;;;;;;;20.51;76.28;101271.34;1673318;84;21701;-72
2021/07/08 03:30:15;;;;;;;7.30;4.73;;;;;;;20.59;76.27;101277.39;1671053;84;21068;-72
2021/07/08 03:32:42;;;;;;;6.83;4.57;;;;;;;20.66;76.22;101279.67;1689889;83;21066;-72
2021/07/08 03:35:09;;;;;;;5.83;4.23;;;;;;;20.69;76.11;101275.79;1680267;83;21170;-72
2021/07/08 03:37:36;;;;;;;7.17;4.77;;;;;;;20.74;75.92;101283.83;1683441;83;21101;-72
2021/07/08 03:40:05;;;;;;;5.60;4.57;;;;;;;20.82;75.44;101283.64;1685158;83;21098;-72
2021/07/08 03:42:34;;;;;;;6.00;4.50;;;;;;;20.90;75.64;101284.83;1681812;83;21157;-73
2021/07/08 03:45:00;;;;;;;6.07;4.80;;;;;;;20.98;75.45;101286.79;1671703;84;21059;-71
2021/07/08 03:47:30;;;;;;;8.83;4.33;;;;;;;21.04;75.39;101288.27;1685320;83;22179;-73
2021/07/08 03:49:57;;;;;;;6.00;4.70;;;;;;;21.08;75.07;101291.41;1683163;83;21103;-72
2021/07/08 03:52:24;;;;;;;6.23;4.50;;;;;;;21.15;74.83;101289.61;1689018;83;21648;-73
2021/07/08 03:54:50;;;;;;;6.90;4.60;;;;;;;21.21;74.76;101292.45;1690999;83;21123;-73
2021/07/08 03:57:17;;;;;;;6.13;4.60;;;;;;;21.25;74.69;101289.34;1686906;83;21120;-73
2021/07/08 03:59:43;;;;;;;5.77;4.80;;;;;;;21.34;74.36;101292.13;1693543;83;21129;-72
2021/07/08 04:02:10;;;;;;;6.27;4.30;;;;;;;21.42;74.27;101295.48;1684728;83;21109;-72
2021/07/08 04:04:38;;;;;;;6.60;4.73;;;;;;;21.51;73.99;101291.44;1688296;83;21090;-73
2021/07/08 04:07:05;;;;;;;6.13;4.70;;;;;;;21.62;73.35;101296.03;1670557;84;21043;-73
2021/07/08 04:09:34;;;;;;;7.07;4.77;;;;;;;21.70;72.70;101298.00;1672778;84;21083;-73
2021/07/08 04:12:01;;;;;;;8.43;4.50;;;;;;;21.78;72.43;101304.02;1677501;84;21074;-72
2021/07/08 04:14:28;;;;;;;8.03;4.93;;;;;;;21.85;72.42;101302.20;1671301;84;21055;-72
2021/07/08 04:16:56;;;;;;;9.90;5.10;;;;;;;21.94;72.27;101311.20;1683705;80;21056;-74
2021/07/08 04:19:23;;;;;;;7.07;5.10;;;;;;;22.00;71.93;101309.94;1686140;83;21486;-75
2021/07/08 04:21:52;;;;;;;6.97;4.73;;;;;;;22.08;71.72;101315.15;1729572;81;20971;-74
2021/07/08 04:24:19;;;;;;;8.57;5.07;;;;;;;22.14;71.26;101309.81;1729113;81;21066;-71
2021/07/08 04:26:46;;;;;;;7.13;5.03;;;;;;;22.20;71.02;101315.37;1686013;83;21757;-70
2021/07/08 04:29:13;;;;;;;5.53;4.83;;;;;;;22.24;70.81;101314.98;1722242;81;21027;-72
2021/07/08 04:31:40;;;;;;;6.60;4.80;;;;;;;22.30;70.57;101314.28;1728822;81;21089;-73
2021/07/08 04:34:07;;;;;;;5.87;4.57;;;;;;;22.36;70.59;101318.45;1730266;81;21597;-72
2021/07/08 04:36:34;;;;;;;5.87;5.03;;;;;;;22.43;70.63;101318.22;1727022;81;21078;-72
2021/07/08 04:39:01;;;;;;;5.73;4.70;;;;;;;22.52;70.56;101317.44;1712371;81;21077;-72
2021/07/08 04:41:27;;;;;;;6.83;4.80;;;;;;;22.62;69.98;101323.36;1726606;81;21077;-71
2021/07/08 04:43:54;;;;;;;7.80;5.23;;;;;;;22.74;69.40;101330.08;1719318;83;21581;-71
2021/07/08 04:46:25;;;;;;;7.07;4.90;;;;;;;22.81;68.68;101327.70;1723343;81;21127;-76
2021/07/08 04:48:52;;;;;;;6.57;4.83;;;;;;;22.87;68.49;101331.31;1722472;81;21081;-73
2021/07/08 04:51:19;;;;;;;8.37;5.07;;;;;;;22.97;67.62;101335.66;1727998;82;21024;-77
2021/07/08 04:53:46;;;;;;;8.20;5.60;;;;;;;23.06;67.58;101339.72;1725974;81;21273;-76
2021/07/08 04:56:13;;;;;;;7.30;4.97;;;;;;;23.14;67.16;101338.36;1726328;81;21601;-75
2021/07/08 04:58:40;;;;;;;6.83;4.80;;;;;;;23.25;66.52;101342.11;1723673;81;21037;-74
2021/07/08 05:01:07;;;;;;;7.03;5.23;;;;;;;23.33;66.62;101337.18;1725849;81;21037;-76
2021/07/08 05:03:35;;;;;;;6.53;5.20;;;;;;;23.38;66.79;101343.27;1724684;81;21039;-76
2021/07/08 05:06:02;;;;;;;6.40;5.40;;;;;;;23.47;65.99;101341.10;1726334;81;21581;-74
2021/07/08 05:08:30;;;;;;;7.00;5.40;;;;;;;23.57;65.59;101342.11;1721482;81;20976;-74
2021/07/08 05:10:57;;;;;;;6.13;5.20;;;;;;;23.64;65.07;101343.77;1719751;81;21050;-79
2021/07/08 05:13:24;;;;;;;6.67;5.17;;;;;;;23.73;65.17;101350.59;1727089;83;21554;-74
2021/07/08 05:15:51;;;;;;;8.00;4.90;;;;;;;23.85;65.09;101352.05;1715623;81;21031;-75
2021/07/08 05:18:18;;;;;;;7.07;5.23;;;;;;;23.94;64.79;101352.82;1734912;81;21033;-73
2021/07/08 05:20:45;;;;;;;6.00;4.90;;;;;;;24.05;64.51;101349.97;1720544;81;21090;-75
2021/07/08 05:23:19;;;;;;;7.20;5.43;;;;;;;24.18;64.26;101351.41;1722195;81;21042;-74
2021/07/08 05:25:46;;;;;;;6.73;5.10;;;;;;;24.26;64.15;101354.67;1722946;81;21999;-74
2021/07/08 05:28:16;;;;;;;8.60;5.33;;;;;;;24.39;63.97;101355.56;1723224;81;21078;-75
2021/07/08 05:30:44;;;;;;;9.40;5.80;;;;;;;24.49;63.88;101358.73;1724201;81;21066;-75
2021/07/08 05:33:12;;;;;;;6.80;5.20;;;;;;;24.59;63.06;101354.01;1715597;81;21094;-75
2021/07/08 05:35:39;;;;;;;9.97;5.17;;;;;;;24.71;63.09;101357.61;1724432;81;21027;-76
2021/07/08 05:38:06;;;;;;;7.17;4.90;;;;;;;24.86;62.86;101359.50;1719477;81;21787;-76
2021/07/08 05:40:35;;;;;;;5.03;4.50;;;;;;;24.96;62.55;101357.15;1711018;81;21096;-75
2021/07/08 05:43:02;;;;;;;6.97;4.70;;;;;;;25.08;61.88;101353.68;1711047;81;21539;-76
2021/07/08 05:45:29;;;;;;;5.70;5.10;;;;;;;25.16;61.27;101358.85;1718784;81;21030;-74
2021/07/08 05:47:55;;;;;;;6.13;4.90;;;;;;;25.21;60.61;101355.92;1721587;81;20983;-75
2021/07/08 05:50:22;;;;;;;5.77;4.50;;;;;;;25.28;60.72;101359.48;1716018;81;21150;-75
2021/07/08 05:52:49;;;;;;;9.17;4.87;;;;;;;25.35;59.92;101357.78;1720900;81;21065;-74
2021/07/08 05:55:17;;;;;;;8.83;4.67;;;;;;;25.46;60.57;101360.88;1725623;81;21038;-76
2021/07/08 05:57:47;;;;;;;7.00;5.20;;;;;;;25.57;59.66;101358.50;1725750;81;21082;-75
2021/07/08 06:00:19;;;;;;;6.33;4.70;;;;;;;25.66;59.27;101362.73;1718314;81;21546;-75
2021/07/08 06:02:46;;;;;;;7.43;4.47;;;;;;;25.79;58.12;101361.38;1727307;81;21134;-75
2021/07/08 06:05:13;;;;;;;5.83;4.50;;;;;;;25.88;57.78;101356.64;1725204;81;21633;-76
2021/07/08 06:07:39;;;;;;;5.70;4.47;;;;;;;25.96;57.60;101362.02;1721635;81;21054;-75
2021/07/08 06:10:07;;;;;;;6.67;4.20;;;;;;;26.07;58.03;101359.61;1723149;81;21612;-73
2021/07/08 06:12:34;;;;;;;5.33;4.53;;;;;;;26.19;58.04;101357.42;1715921;81;21753;-75
2021/07/08 06:15:01;;;;;;;5.10;4.23;;;;;;;26.33;56.97;101351.03;1687591;83;21179;-74
2021/07/08 06:17:30;;;;;;;10.83;4.40;;;;;;;26.48;56.39;101355.02;1679463;83;21059;-75
2021/07/08 06:19:57;;;;;;;6.80;4.60;;;;;;;26.62;56.15;101356.00;1724730;81;21066;-73
2021/07/08 06:22:24;;;;;;;6.53;4.20;;;;;;;26.75;56.14;101358.97;1725029;81;21061;-72
2021/07/08 06:24:51;;;;;;;5.83;4.60;;;;;;;26.83;56.11;101364.86;1724841;81;20980;-73
2021/07/08 06:27:18;;;;;;;6.43;4.33;;;;;;;26.86;55.95;101366.12;1725084;81;21077;-73
2021/07/08 06:29:44;;;;;;;6.33;4.40;;;;;;;26.90;55.92;101365.06;1722708;81;21055;-73
2021/07/08 06:32:16;;;;;;;6.07;4.60;;;;;;;27.00;55.99;101364.34;1722789;81;20979;-72
2021/07/08 06:34:41;;;;;;;7.63;4.40;;;;;;;27.12;55.28;101371.95;1725992;81;21030;-73
2021/07/08 06:37:07;;;;;;;6.73;4.73;;;;;;;27.24;55.52;101368.36;1729544;81;21033;-75
2021/07/08 06:39:34;;;;;;;6.07;3.80;;;;;;;27.38;54.69;101374.00;1724664;81;21779;-73
2021/07/08 06:42:01;;;;;;;4.87;4.20;;;;;;;27.45;54.17;101374.22;1723042;81;21018;-75
2021/07/08 06:44:28;;;;;;;5.73;4.37;;;;;;;27.53;53.61;101375.41;1721965;81;21218;-74
2021/07/08 06:46:54;;;;;;;6.00;4.20;;;;;;;27.57;53.63;101373.57;1715721;81;21034;-75
2021/07/08 06:49:22;;;;;;;6.90;4.30;;;;;;;27.62;53.69;101375.83;1724148;81;21000;-75
2021/07/08 06:51:49;;;;;;;5.80;3.73;;;;;;;27.67;53.04;101376.92;1687045;84;21133;-75
2021/07/08 06:54:16;;;;;;;6.17;4.20;;;;;;;27.72;53.03;101373.34;1721980;81;21516;-74
2021/07/08 06:56:43;;;;;;;6.13;4.13;;;;;;;27.78;52.32;101377.45;1721439;81;22502;-74
2021/07/08 06:59:10;;;;;;;7.47;3.67;;;;;;;27.77;51.84;101379.16;1726119;81;21242;-75
2021/07/08 07:01:38;;;;;;;6.17;3.93;;;;;;;27.82;51.82;101377.53;1718706;81;21077;-75
2021/07/08 07:04:05;;;;;;;5.67;3.80;;;;;;;27.90;51.52;101378.50;1713092;81;21301;-75
2021/07/08 07:06:32;;;;;;;5.90;3.70;;;;;;;27.95;51.70;101380.98;1723932;81;21105;-75
2021/07/08 07:08:59;;;;;;;7.37;3.83;;;;;;;28.05;51.25;101388.69;1722574;81;21018;-77
2021/07/08 07:11:27;;;;;;;5.27;3.60;;;;;;;28.13;50.87;101380.82;1725831;81;21105;-74
2021/07/08 07:13:53;;;;;;;5.50;3.83;;;;;;;28.21;50.35;101381.22;1721387;81;21157;-75
2021/07/08 07:16:22;;;;;;;5.40;3.83;;;;;;;28.23;49.71;101387.16;1725886;81;21014;-74
2021/07/08 07:18:50;;;;;;;4.47;3.10;;;;;;;28.24;49.77;101386.58;1721230;81;21025;-73
2021/07/08 07:21:17;;;;;;;5.70;3.20;;;;;;;28.26;49.37;101385.63;1722693;81;21018;-74
2021/07/08 07:23:47;;;;;;;3.93;3.10;;;;;;;28.33;49.37;101391.28;1728314;81;20987;-73
2021/07/08 07:26:13;;;;;;;5.37;3.60;;;;;;;28.40;48.71;101390.70;1729439;81;20995;-74
2021/07/08 07:28:40;;;;;;;4.53;3.03;;;;;;;28.44;48.05;101391.58;1727505;81;21150;-73
2021/07/08 07:31:07;;;;;;;5.67;2.80;;;;;;;28.43;47.99;101388.04;1717599;81;21074;-73
2021/07/08 07:33:34;;;;;;;5.63;3.00;;;;;;;28.42;46.40;101398.00;1724365;81;21021;-73
2021/07/08 07:36:03;;;;;;;6.80;3.30;;;;;;;28.32;46.25;101393.82;1723607;81;21026;-73
2021/07/08 07:38:31;;;;;;;4.20;2.83;;;;;;;28.28;46.47;101396.48;1722186;81;46597;-75
2021/07/08 07:40:58;;;;;;;4.77;3.00;;;;;;;28.37;46.23;101398.27;1723900;82;21148;-73
2021/07/08 07:43:24;;;;;;;5.07;3.30;;;;;;;28.48;45.81;101399.31;1721650;81;21552;-73
2021/07/08 07:45:51;;;;;;;4.17;2.87;;;;;;;28.57;46.12;101399.92;1729457;81;21069;-74
2021/07/08 07:48:18;;;;;;;5.13;2.70;;;;;;;28.71;45.74;101396.67;1725680;81;21544;-73
2021/07/08 07:50:46;;;;;;;4.57;2.70;;;;;;;28.86;45.53;101395.83;1724469;81;21047;-74
2021/07/08 07:53:13;;;;;;;4.30;2.60;;;;;;;29.03;45.12;101393.25;1719644;81;21131;-73
2021/07/08 07:55:40;;;;;;;4.73;2.73;;;;;;;29.19;43.99;101391.20;1708305;81;21489;-72
2021/07/08 07:58:08;;;;;;;5.10;3.20;;;;;;;29.20;43.77;101391.41;1717992;82;21089;-71
2021/07/08 08:00:35;;;;;;;4.43;2.60;;;;;;;29.19;44.46;101394.55;1722471;81;21039;-73
2021/07/08 08:03:02;;;;;;;4.00;2.73;;;;;;;29.24;44.34;101393.44;1723753;81;21135;-72
2021/07/08 08:05:36;;;;;;;4.97;3.10;;;;;;;29.35;44.04;101399.93;1726976;81;21552;-73
2021/07/08 08:10:47;;;;;;;3.80;2.80;;;;;;;29.43;44.11;101401.66;1723011;81;21022;-73
2021/07/08 08:13:14;;;;;;;3.60;2.60;;;;;;;29.57;43.86;101399.16;1707431;83;20998;-72
2021/07/08 08:15:41;;;;;;;3.57;2.70;;;;;;;29.76;43.85;101400.31;1725643;81;20971;-72
2021/07/08 08:18:08;;;;;;;3.93;2.50;;;;;;;29.94;42.44;101394.49;1726358;81;21109;-73
2021/07/08 08:20:34;;;;;;;3.30;2.60;;;;;;;30.00;42.90;101386.13;1730877;81;21034;-71
2021/07/08 08:23:00;;;;;;;3.93;2.83;;;;;;;30.10;43.00;101388.84;1727109;81;21027;-72
2021/07/08 08:25:27;;;;;;;3.10;2.50;;;;;;;30.21;42.20;101389.03;1728333;81;21014;-73
2021/07/08 08:27:54;;;;;;;4.10;2.70;;;;;;;30.19;42.44;101388.03;1724477;81;21318;-75
2021/07/08 08:30:21;;;;;;;4.00;2.65;;;;;;;30.29;42.32;101393.49;1731196;80;21139;-74
2021/07/08 08:32:49;;;;;;;3.55;2.67;;;;;;;30.43;41.45;101397.03;1730413;81;20979;-73
2021/07/08 08:35:16;;;;;;;3.33;2.70;;;;;;;30.51;41.48;101398.73;1727097;83;21015;-73
2021/07/08 08:37:43;;;;;;;4.80;3.05;;;;;;;30.57;41.14;101394.48;1723326;81;21652;-72
2021/07/08 08:40:11;;;;;;;3.35;2.25;;;;;;;30.47;40.83;101404.20;1728688;81;21035;-73
2021/07/08 08:42:37;;;;;;;5.12;2.67;;;;;;;30.34;41.35;101403.63;1717519;81;21415;-72
2021/07/08 08:45:07;;;;;;;4.75;2.65;;;;;;;30.29;41.85;101400.38;1727313;81;21582;-73
2021/07/08 08:47:36;;;;;;;3.70;2.55;;;;;;;30.28;42.23;101401.56;1728895;81;21043;-73
2021/07/08 08:50:05;;;;;;;;;;;;;;;30.29;41.52;101402.55;1705354;82;20960;-72
2021/07/08 08:52:32;;;;;;;3.67;2.92;;;;;;;30.26;41.30;101404.67;1716731;82;20196;-72
2021/07/08 08:55:00;;;;;;;4.20;2.70;;;;;;;30.22;39.23;101403.03;1728923;81;21075;-74
2021/07/08 08:57:28;;;;;;;6.22;3.02;;;;;;;30.23;38.70;101401.86;1723808;83;21081;-73
2021/07/08 08:59:54;;;;;;;5.75;2.58;;;;;;;30.33;39.69;101398.47;1729652;81;21150;-74
2021/07/08 09:02:22;;;;;;;4.50;2.87;;;;;;;30.36;40.23;101397.13;1721715;81;21478;-72
2021/07/08 09:04:50;;;;;;;5.10;2.52;;;;;;;30.29;40.79;101389.36;1726052;81;21482;-73
2021/07/08 09:07:27;;;;;;;3.98;2.77;;;;;;;30.36;41.32;101398.52;1717897;81;21119;-73
2021/07/08 09:09:59;;;;;;;5.53;2.75;;;;;;;30.46;40.86;101392.94;1720448;81;21477;-74
2021/07/08 09:12:26;;;;;;;5.12;2.95;;;;;;;30.46;39.74;101399.83;1726125;83;21054;-74
2021/07/08 09:15:14;;;;;;;4.20;2.90;;;;;;;30.50;40.02;101404.02;1718275;81;21118;-73
2021/07/08 09:17:44;;;;;;;3.33;2.58;;;;;;;30.47;39.47;101397.31;1729607;83;21027;-72
2021/07/08 09:20:15;;;;;;;6.45;3.20;;;;;;;30.47;38.65;101400.06;1721419;81;21126;-74
2021/07/08 09:22:44;;;;;;;5.50;3.02;;;;;;;30.48;37.78;101393.37;1723447;82;20936;-74
2021/07/08 09:25:26;;;;;;;3.15;2.47;;;;;;;30.50;37.80;101396.53;1728741;81;21027;-74
2021/07/08 09:28:20;;;;;;;7.40;2.80;;;;;;;30.54;37.71;101398.78;1727173;81;21094;-74
2021/07/08 09:30:48;;;;;;;5.40;2.95;;;;;;;30.53;37.29;101392.24;1721558;81;21209;-75
2021/07/08 09:33:37;;;;;;;5.20;3.15;;;;;;;30.52;38.04;101392.05;1663077;81;21767;-75
2021/07/08 09:36:11;;;;;;;3.47;2.77;;;;;;;30.53;38.34;101391.66;1719547;82;21032;-75
2021/07/08 09:38:47;;;;;;;4.53;2.80;;;;;;;30.37;36.76;101391.86;1724037;81;21006;-75
2021/07/08 09:41:19;;;;;;;3.20;2.40;;;;;;;30.22;37.13;101391.42;1728145;81;21020;-73
2021/07/08 09:43:45;;;;;;;5.65;2.50;;;;;;;30.12;37.13;101392.83;1714125;81;21042;-75
2021/07/08 09:46:14;;;;;;;4.17;2.67;;;;;;;29.94;37.74;101395.87;1720178;81;21177;-74
2021/07/08 09:49:05;;;;;;;3.52;2.58;;;;;;;29.94;37.53;101393.11;1726110;81;21015;-75
2021/07/08 09:51:33;;;;;;;5.83;3.22;;;;;;;30.07;37.67;101394.50;1713510;81;21023;-73
2021/07/08 09:54:42;;;;;;;7.35;3.08;;;;;;;30.21;37.08;101385.72;1731790;81;21081;-73
2021/07/08 09:56:51;;;;;;;5.47;2.60;;;;;;;30.32;36.78;101391.38;1709757;82;21175;-73
2021/07/08 09:59:20;;;;;;;3.17;2.22;;;;;;;30.46;36.64;101382.50;1689242;83;21146;-73
2021/07/08 10:01:57;;;;;;;5.17;2.50;;;;;;;30.53;33.65;101386.73;1726783;81;21137;-73
2021/07/08 10:04:25;;;;;;;5.60;2.58;;;;;;;30.46;33.92;101387.43;1747412;81;21063;-73
2021/07/08 10:06:54;;;;;;;5.08;2.62;;;;;;;30.29;35.26;101379.72;1725552;81;21109;-73
2021/07/08 10:09:21;;;;;;;3.52;2.58;;;;;;;30.23;36.13;101381.98;1724973;81;21506;-72
2021/07/08 10:11:51;;;;;;;4.20;2.60;;;;;;;30.32;36.70;101384.48;1724743;81;21003;-73
2021/07/08 10:14:20;;;;;;;5.08;2.92;;;;;;;30.43;36.86;101374.98;1727706;81;21016;-73
2021/07/08 10:16:51;;;;;;;3.90;2.60;;;;;;;30.60;37.60;101374.41;1725857;81;21066;-74
2021/07/08 10:19:19;;;;;;;3.92;2.42;;;;;;;30.81;36.92;101377.48;1720643;81;27435;-72
2021/07/08 10:21:48;;;;;;;4.53;2.20;;;;;;;30.92;35.53;101372.67;1725053;81;21093;-73
2021/07/08 10:24:16;;;;;;;7.20;2.80;;;;;;;30.99;35.55;101369.98;1733059;81;21784;-73
2021/07/08 10:26:45;;;;;;;7.25;2.67;;;;;;;31.05;35.80;101369.86;1715907;81;20887;-73
2021/07/08 10:29:14;;;;;;;4.78;2.40;;;;;;;31.18;35.35;101367.05;1715855;82;21577;-74
2021/07/08 10:31:41;;;;;;;3.55;2.40;;;;;;;31.22;35.57;101364.33;1716047;81;21093;-72
2021/07/08 10:34:16;;;;;;;4.33;2.80;;;;;;;31.22;36.89;101370.63;1734998;81;21085;-73
2021/07/08 10:36:49;;;;;;;5.25;2.55;;;;;;;31.31;37.49;101369.74;1725691;81;21078;-70
2021/07/08 10:39:20;;;;;;;4.65;2.47;;;;;;;31.43;37.22;101362.41;1720857;81;21215;-72
2021/07/08 10:41:54;;;;;;;3.50;2.60;;;;;;;31.61;37.14;101359.79;1724988;81;21010;-73
2021/07/08 10:44:39;;;;;;;4.50;2.40;;;;;;;31.81;37.41;101359.75;1718471;81;21070;-74
2021/07/08 10:47:26;;;;;;;4.37;2.60;;;;;;;31.94;37.30;101362.44;1722054;81;21374;-72
2021/07/08 10:49:53;;;;;;;4.70;2.75;;;;;;;32.02;34.43;101357.78;1713061;82;21517;-72
2021/07/08 10:52:43;;;;;;;4.87;2.62;;;;;;;31.98;34.90;101357.76;1728197;81;21050;-71
2021/07/08 10:55:11;;;;;;;4.37;1.98;;;;;;;32.01;34.68;101358.94;1722755;81;21035;-72
2021/07/08 10:57:40;;;;;;;3.50;2.15;;;;;;;31.92;31.13;101353.77;1703213;82;21062;-72
2021/07/08 11:00:14;;;;;;;4.20;2.27;;;;;;;31.82;31.73;101350.88;1728615;81;21006;-72
2021/07/08 11:02:48;;;;;;;3.77;2.22;;;;;;;31.79;32.82;101352.45;1709858;82;21107;-71
2021/07/08 11:05:25;;;;;;;4.67;2.33;;;;;;;31.81;32.13;101344.56;1715415;81;21089;-71
2021/07/08 11:07:51;;;;;;;2.90;1.98;;;;;;;31.82;32.29;101343.97;1695868;81;20987;-72
2021/07/08 11:10:32;;;;;;;5.03;2.58;;;;;;;31.86;32.40;101342.05;1708595;82;21062;-72
2021/07/08 11:13:26;;;;;;;8.55;3.02;;;;;;;31.95;34.89;101346.09;1725171;81;21042;-71
2021/07/08 11:15:54;;;;;;;3.92;2.60;;;;;;;31.99;34.27;101348.28;1722553;81;21120;-73
2021/07/08 11:18:32;;;;;;;7.58;2.80;;;;;;;31.88;35.04;101344.64;1723121;81;21647;-73
2021/07/08 11:20:59;;;;;;;2.85;1.77;;;;;;;31.80;34.33;101345.75;1724561;82;21204;-73
2021/07/08 11:23:38;;;;;;;3.20;2.30;;;;;;;31.84;31.90;101342.41;1715364;81;22473;-72
2021/07/08 11:26:07;;;;;;;2.67;1.85;;;;;;;31.81;30.70;101341.80;1732024;81;22125;-72
2021/07/08 11:28:34;;;;;;;3.10;1.80;;;;;;;31.80;30.89;101338.84;1723302;81;21159;-74
2021/07/08 11:31:05;;;;;;;5.80;2.20;;;;;;;31.90;30.85;101336.77;1725217;83;21438;-72
2021/07/08 11:33:36;;;;;;;9.58;3.10;;;;;;;32.05;31.12;101339.61;1725579;81;21031;-72
2021/07/08 11:36:07;;;;;;;4.12;2.55;;;;;;;32.16;32.69;101337.12;1685985;83;21001;-72
2021/07/08 11:38:32;;;;;;;;;;;;;;;32.22;31.97;101338.95;1709120;81;21645;-72